Time;durP1;ratioP1;P1;durP2;ratioP2;P2;SDS_P1;SDS_P2;PMS_P1;PMS_P2;Temp;Humidity;BMP_temperature;BMP_pressure;BME280_temperature;BME280_humidity;BME280_pressure;Samples;Min_cycle;Max_cycle;Signal;HPM_P1;HPM_P2
2024/04/01 00:03:35;;;;;;;2.33;0.73;;;;;;;11.76;58.56;97861.81;10431713;28;20132;-61
2024/04/01 00:08:36;;;;;;;1.13;0.60;;;;;;;11.44;59.76;97865.88;10407906;28;20144;-61
2024/04/01 00:13:37;;;;;;;0.32;0.32;;;;;;;11.23;60.46;97838.16;10416064;28;20080;-61
2024/04/01 00:18:38;;;;;;;2.45;0.68;;;;;;;11.11;60.75;97839.31;10465188;28;20044;-61
2024/04/01 00:23:39;;;;;;;1.02;0.60;;;;;;;11.16;60.90;97829.25;10413540;28;20420;-61
2024/04/01 00:28:40;;;;;;;1.27;0.80;;;;;;;11.11;61.47;97838.53;10416497;28;20053;-61
2024/04/01 00:33:41;;;;;;;2.38;1.10;;;;;;;10.98;62.25;97806.59;10427730;28;20044;-61
2024/04/01 00:38:42;;;;;;;1.27;0.73;;;;;;;10.95;62.64;97806.91;10430617;28;20057;-61
2024/04/01 00:43:43;;;;;;;1.50;0.70;;;;;;;11.06;62.73;97804.94;10396621;28;20382;-61
2024/04/01 00:48:45;;;;;;;1.02;0.80;;;;;;;11.03;62.98;97820.88;10431616;28;20056;-61
2024/04/01 00:53:46;;;;;;;1.63;0.82;;;;;;;11.09;63.24;97822.94;10430716;28;20057;-61
2024/04/01 00:58:47;;;;;;;1.58;1.05;;;;;;;11.17;63.26;97840.56;10430824;28;20436;-62
2024/04/01 01:03:49;;;;;;;0.85;0.73;;;;;;;11.07;63.39;97835.34;10427561;28;20136;-61
2024/04/01 01:08:50;;;;;;;1.85;1.15;;;;;;;11.03;63.47;97836.59;10429460;28;20044;-60
2024/04/01 01:13:51;;;;;;;1.67;0.77;;;;;;;11.02;63.56;97823.66;10413936;28;20495;-60
2024/04/01 01:18:53;;;;;;;3.05;1.00;;;;;;;10.78;64.27;97803.28;10428074;28;20048;-61
2024/04/01 01:23:54;;;;;;;1.50;0.90;;;;;;;10.68;64.90;97773.72;10411346;28;20127;-61
2024/04/01 01:28:56;;;;;;;0.88;0.60;;;;;;;10.52;65.46;97740.34;10426619;28;20049;-61
2024/04/01 01:33:57;;;;;;;2.63;1.48;;;;;;;10.64;65.28;97724.50;10427218;28;20045;-60
2024/04/01 01:38:58;;;;;;;1.20;0.70;;;;;;;10.84;65.00;97731.25;10424295;28;20069;-61
2024/04/01 01:43:59;;;;;;;1.45;0.88;;;;;;;10.86;65.12;97719.69;10428631;28;20572;-61
2024/04/01 01:49:00;;;;;;;2.08;1.00;;;;;;;11.02;64.97;97711.19;10428843;28;20185;-61
2024/04/01 01:54:01;;;;;;;2.45;1.30;;;;;;;11.09;64.73;97702.63;10429063;28;20393;-61
2024/04/01 01:59:02;;;;;;;2.17;1.15;;;;;;;11.15;64.69;97694.19;10427279;28;20045;-61
2024/04/01 02:04:03;;;;;;;3.45;1.83;;;;;;;11.21;64.38;97695.41;10427735;28;20052;-61
2024/04/01 02:09:04;;;;;;;4.40;2.10;;;;;;;11.12;64.55;97699.72;10424021;28;20053;-60
2024/04/01 02:14:05;;;;;;;3.78;2.00;;;;;;;11.11;64.80;97666.66;10429779;28;20049;-61
2024/04/01 02:19:07;;;;;;;4.50;2.30;;;;;;;11.12;65.01;97678.78;10426933;28;20528;-61
2024/04/01 02:24:08;;;;;;;3.25;1.40;;;;;;;11.17;64.81;97668.69;10426289;28;20056;-61
2024/04/01 02:29:09;;;;;;;1.20;1.00;;;;;;;11.15;64.68;97670.63;10424855;28;20060;-61
2024/04/01 02:34:10;;;;;;;3.35;1.40;;;;;;;11.04;64.87;97691.81;10428626;28;20056;-62
2024/04/01 02:39:17;;;;;;;2.13;1.38;;;;;;;10.97;65.25;97695.94;10427625;28;20469;-61
2024/04/01 02:44:18;;;;;;;0.73;0.73;;;;;;;10.93;65.36;97680.72;10430802;28;20159;-61
2024/04/01 02:49:19;;;;;;;1.70;1.00;;;;;;;10.93;65.42;97689.34;10434344;28;20513;-62
2024/04/01 02:54:20;;;;;;;1.65;1.08;;;;;;;10.93;65.14;97678.88;10433365;28;20118;-61
2024/04/01 02:59:21;;;;;;;0.90;0.90;;;;;;;10.85;65.11;97664.91;10434232;28;20061;-61
2024/04/01 03:04:22;;;;;;;2.25;1.25;;;;;;;10.59;65.95;97656.97;10397728;28;20040;-61
2024/04/01 03:09:23;;;;;;;2.72;1.70;;;;;;;10.65;66.00;97669.44;10435198;28;20049;-61
2024/04/01 03:14:24;;;;;;;2.22;1.10;;;;;;;10.80;65.91;97670.59;10402175;28;20063;-61
2024/04/01 03:19:25;;;;;;;1.52;1.00;;;;;;;10.81;65.95;97693.16;10434110;28;20370;-61
2024/04/01 03:24:26;;;;;;;1.75;1.13;;;;;;;10.72;66.44;97667.06;10432214;28;20115;-60
2024/04/01 03:29:27;;;;;;;1.52;0.93;;;;;;;10.80;66.25;97672.38;10417610;28;20311;-60
2024/04/01 03:34:28;;;;;;;2.13;1.10;;;;;;;10.86;66.09;97651.72;10399079;28;20040;-61
2024/04/01 03:39:32;;;;;;;1.40;1.02;;;;;;;10.79;66.09;97632.34;10431115;28;20048;-62
2024/04/01 03:44:33;;;;;;;0.90;0.90;;;;;;;10.81;66.08;97633.00;10434345;28;20053;-60
2024/04/01 03:49:34;;;;;;;2.33;0.95;;;;;;;10.98;65.89;97642.66;10429279;28;20559;-61
2024/04/01 03:54:35;;;;;;;2.45;1.23;;;;;;;11.07;65.73;97647.03;10432758;28;20052;-61
2024/04/01 03:59:36;;;;;;;3.45;1.10;;;;;;;11.06;65.49;97650.63;10430197;28;20060;-61
2024/04/01 04:04:37;;;;;;;1.80;1.10;;;;;;;11.03;65.79;97669.19;10429849;28;20415;-61
2024/04/01 04:09:38;;;;;;;1.88;1.20;;;;;;;10.95;65.68;97669.09;10429724;28;20456;-61
2024/04/01 04:14:39;;;;;;;2.05;1.48;;;;;;;10.93;65.65;97659.78;10432823;28;20106;-61
2024/04/01 04:19:40;;;;;;;4.18;1.50;;;;;;;10.98;65.88;97663.59;10429516;28;20099;-60
2024/04/01 04:24:42;;;;;;;2.22;1.70;;;;;;;10.81;65.99;97659.16;10433043;28;20049;-60
2024/04/01 04:29:43;;;;;;;2.70;1.40;;;;;;;10.63;66.69;97649.66;10429351;28;20041;-61
2024/04/01 04:34:44;;;;;;;18.30;1.80;;;;;;;10.40;67.13;97621.31;10413644;28;20140;-61
2024/04/01 04:39:45;;;;;;;3.35;1.10;;;;;;;10.41;67.22;97609.91;10429295;28;20049;-61
2024/04/01 04:44:46;;;;;;;3.45;1.27;;;;;;;10.55;66.92;97618.19;10432018;28;20310;-61
2024/04/01 04:49:47;;;;;;;3.10;1.58;;;;;;;10.67;66.81;97628.31;10414542;28;20532;-61
2024/04/01 04:54:48;;;;;;;2.30;1.30;;;;;;;10.83;66.73;97633.69;10412768;28;20045;-61
2024/04/01 04:59:49;;;;;;;3.38;1.58;;;;;;;10.89;66.38;97635.72;10429514;28;20045;-61
2024/04/01 05:04:50;;;;;;;3.33;1.60;;;;;;;10.93;66.17;97625.78;10428369;28;20508;-61
2024/04/01 05:09:51;;;;;;;2.80;1.50;;;;;;;10.95;66.20;97619.41;10430777;28;20123;-61
2024/04/01 05:14:52;;;;;;;2.55;1.63;;;;;;;10.96;66.22;97608.00;10415695;28;20425;-61
2024/04/01 05:19:53;;;;;;;2.03;1.30;;;;;;;11.05;66.02;97609.72;10414620;28;20048;-61
2024/04/01 05:24:54;;;;;;;2.15;1.40;;;;;;;11.09;66.10;97621.53;10429018;28;20524;-61
2024/04/01 05:30:09;;;;;;;3.20;1.70;;;;;;;11.09;66.18;97639.03;10430598;28;20076;-61
2024/04/01 05:35:11;;;;;;;3.55;1.63;;;;;;;11.07;66.18;97649.63;10428005;28;20045;-61
2024/04/01 05:40:13;;;;;;;4.13;1.60;;;;;;;10.96;66.42;97681.22;10411809;28;20199;-61
2024/04/01 05:45:13;;;;;;;2.38;1.17;;;;;;;10.88;66.70;97702.06;10428722;28;20047;-61
2024/04/01 05:50:18;;;;;;;1.83;1.15;;;;;;;10.85;66.80;97712.81;10425977;28;20971;-61
2024/04/01 05:55:19;;;;;;;0.70;0.70;;;;;;;10.86;66.91;97711.84;10428711;28;20049;-61
2024/04/01 06:00:20;;;;;;;1.10;0.80;;;;;;;11.00;66.53;97706.13;10427914;28;20079;-61
2024/04/01 06:05:21;;;;;;;2.35;1.40;;;;;;;11.08;66.34;97708.84;10429792;28;20567;-61
2024/04/01 06:10:22;;;;;;;2.03;1.35;;;;;;;11.15;66.46;97712.50;10427520;28;20052;-61
2024/04/01 06:15:23;;;;;;;7.40;3.72;;;;;;;11.21;66.18;97713.72;10427513;28;20426;-61
2024/04/01 06:20:24;;;;;;;3.63;1.20;;;;;;;11.14;66.33;97707.41;10411229;28;20110;-61
2024/04/01 06:25:25;;;;;;;4.47;2.20;;;;;;;11.17;66.24;97707.94;10436635;28;20520;-62
2024/04/01 06:30:26;;;;;;;2.33;1.40;;;;;;;11.26;66.03;97712.28;10433576;28;20045;-62
2024/04/01 06:35:27;;;;;;;2.00;1.27;;;;;;;11.28;66.02;97712.97;10418051;28;20056;-62
2024/04/01 06:40:28;;;;;;;0.90;0.70;;;;;;;11.19;66.14;97721.69;10434684;28;20044;-62
2024/04/01 06:45:29;;;;;;;0.60;0.60;;;;;;;11.01;66.37;97712.19;10402319;28;20400;-62
2024/04/01 06:50:30;;;;;;;1.25;0.65;;;;;;;10.98;66.55;97708.06;10434728;28;20041;-62
2024/04/01 06:55:31;;;;;;;0.80;0.38;;;;;;;10.81;67.00;97718.47;10416758;28;20508;-62
2024/04/01 07:00:32;;;;;;;1.17;0.73;;;;;;;10.80;67.05;97717.66;10417595;28;20120;-63
2024/04/01 07:05:34;;;;;;;0.50;0.50;;;;;;;10.73;67.40;97727.06;10433919;28;20098;-62
2024/04/01 07:10:35;;;;;;;1.60;1.00;;;;;;;10.79;67.34;97736.09;10431690;28;20045;-63
2024/04/01 07:15:36;;;;;;;0.73;0.55;;;;;;;10.71;67.48;97744.66;10417255;28;20045;-62
2024/04/01 07:20:37;;;;;;;0.60;0.60;;;;;;;10.77;67.24;97764.19;10435053;28;20405;-62
2024/04/01 07:25:38;;;;;;;0.68;0.40;;;;;;;10.61;67.75;97767.41;10433376;28;20046;-62
2024/04/01 07:30:39;;;;;;;1.33;0.47;;;;;;;10.60;67.33;97765.78;10433879;28;20546;-62
2024/04/01 07:35:40;;;;;;;0.40;0.40;;;;;;;10.65;67.31;97781.84;10432652;28;20053;-62
2024/04/01 07:40:41;;;;;;;0.25;0.25;;;;;;;10.59;67.56;97784.22;10433492;28;20053;-62
2024/04/01 07:45:43;;;;;;;0.55;0.50;;;;;;;10.60;67.46;97786.69;10430763;28;20033;-62
2024/04/01 07:50:44;;;;;;;0.40;0.40;;;;;;;10.60;67.53;97789.31;10431311;28;20047;-62
2024/04/01 07:55:45;;;;;;;0.75;0.50;;;;;;;10.76;67.08;97783.47;10414282;28;21098;-62
2024/04/01 08:00:46;;;;;;;0.80;0.57;;;;;;;10.88;66.75;97788.34;10432052;28;20652;-62
2024/04/01 08:05:47;;;;;;;0.38;0.38;;;;;;;10.90;66.37;97796.88;10419539;28;20045;-62
2024/04/01 08:10:48;;;;;;;0.30;0.30;;;;;;;11.08;66.39;97787.31;10424182;28;20064;-62
2024/04/01 08:16:03;;;;;;;0.60;0.40;;;;;;;11.21;66.00;97790.38;10425401;28;20511;-62
2024/04/01 08:21:04;;;;;;;0.40;0.30;;;;;;;11.18;65.94;97788.09;10413931;28;20489;-62
2024/04/01 08:26:05;;;;;;;0.93;0.60;;;;;;;11.08;65.78;97802.19;10412643;28;20040;-62
2024/04/01 08:31:06;;;;;;;4.68;1.10;;;;;;;11.30;65.66;97797.38;10427782;28;20155;-62
2024/04/01 08:36:07;;;;;;;1.60;1.15;;;;;;;11.33;65.67;97809.34;10428663;28;21124;-62
2024/04/01 08:41:17;;;;;;;0.50;0.50;;;;;;;11.44;65.21;97809.09;10428950;28;20055;-63
2024/04/01 08:46:20;;;;;;;3.67;1.15;;;;;;;11.32;65.06;97799.81;10428411;28;20045;-62
2024/04/01 08:51:21;;;;;;;0.50;0.50;;;;;;;11.46;64.92;97803.75;10428501;28;20033;-62
2024/04/01 08:56:22;;;;;;;0.85;0.47;;;;;;;11.52;64.28;97811.81;10428351;28;20102;-61
2024/04/01 09:01:23;;;;;;;1.45;0.85;;;;;;;11.50;64.39;97818.19;10428871;28;20041;-61
2024/04/01 09:06:25;;;;;;;1.38;0.82;;;;;;;11.63;64.35;97829.09;10427954;28;20469;-60
2024/04/01 09:11:28;;;;;;;0.47;0.47;;;;;;;11.70;64.00;97836.19;10428273;28;20095;-60
2024/04/01 09:16:31;;;;;;;0.52;0.52;;;;;;;11.69;63.82;97849.44;10428333;28;20037;-59
2024/04/01 09:21:33;;;;;;;0.47;0.47;;;;;;;11.76;63.53;97847.91;10393839;28;20063;-60
2024/04/01 09:26:34;;;;;;;0.57;0.52;;;;;;;11.74;63.93;97860.31;10420871;28;20413;-60
2024/04/01 09:31:35;;;;;;;0.63;0.57;;;;;;;11.79;63.24;97847.56;10385074;28;20047;-60
2024/04/01 09:36:36;;;;;;;0.73;0.73;;;;;;;11.99;63.00;97856.94;10406784;28;20094;-60
2024/04/01 09:41:37;;;;;;;1.50;1.00;;;;;;;12.23;62.60;97862.41;10426676;28;20102;-60
2024/04/01 09:46:38;;;;;;;0.65;0.65;;;;;;;11.96;62.81;97867.72;10404121;28;20044;-60
2024/04/01 09:51:41;;;;;;;0.52;0.43;;;;;;;11.74;63.15;97860.31;10424872;28;20060;-60
2024/04/01 09:57:18;;;;;;;0.30;0.30;;;;;;;11.93;62.47;97871.47;10422857;28;20049;-60
2024/04/01 10:02:38;;;;;;;0.60;0.45;;;;;;;11.65;62.90;97859.41;10427875;28;20564;-60
2024/04/01 10:08:25;;;;;;;2.85;1.48;;;;;;;11.52;63.54;97879.06;10423143;28;20712;-60
2024/04/01 10:13:38;;;;;;;0.30;0.30;;;;;;;11.48;63.71;97898.66;10416970;28;20053;-60
2024/04/01 10:19:18;;;;;;;0.65;0.17;;;;;;;11.72;62.86;97888.44;10429316;28;20397;-60
2024/04/01 10:24:52;;;;;;;0.40;0.40;;;;;;;12.37;61.16;97867.13;10424617;28;20136;-60
2024/04/01 10:30:17;;;;;;;1.05;0.98;;;;;;;12.95;60.95;97894.38;10427627;28;20037;-60
2024/04/01 10:35:27;;;;;;;0.85;0.43;;;;;;;12.74;61.19;97907.03;10431741;28;20449;-60
2024/04/01 10:41:14;;;;;;;0.55;0.55;;;;;;;12.38;61.43;97926.41;10432334;28;20052;-60
2024/04/01 10:46:21;;;;;;;0.85;0.60;;;;;;;12.12;61.93;97941.22;10343132;28;20624;-60
2024/04/01 10:51:40;;;;;;;0.50;0.50;;;;;;;11.91;62.76;97969.50;10396392;28;20053;-60
2024/04/01 10:57:03;;;;;;;0.50;0.50;;;;;;;11.61;62.62;97980.28;10427814;28;20045;-60
2024/04/01 11:02:25;;;;;;;0.45;0.45;;;;;;;11.33;63.43;97997.75;10427596;28;20854;-60
2024/04/01 11:07:47;;;;;;;1.73;1.02;;;;;;;11.15;64.65;98018.59;10430241;28;20055;-61
2024/04/01 11:13:07;;;;;;;2.78;1.38;;;;;;;11.22;64.59;98030.16;10431307;28;20049;-60
2024/04/01 11:18:14;;;;;;;0.63;0.55;;;;;;;11.26;64.23;98038.53;10431921;28;20521;-63
2024/04/01 11:23:31;;;;;;;0.50;0.50;;;;;;;11.14;63.86;98047.50;10425829;28;20052;-60
2024/04/01 11:28:55;;;;;;;0.30;0.30;;;;;;;11.18;64.25;98069.81;10427810;28;20115;-61
2024/04/01 11:34:16;;;;;;;0.40;0.40;;;;;;;11.05;63.84;98091.03;10423465;28;20450;-61
2024/04/01 11:39:19;;;;;;;1.17;0.30;;;;;;;10.68;63.60;98108.34;10460556;28;20037;-61
2024/04/01 11:44:24;;;;;;;0.35;0.35;;;;;;;10.40;63.52;98119.56;10424001;28;20036;-61
2024/04/01 11:49:25;;;;;;;0.52;0.52;;;;;;;10.55;63.65;98133.09;10420978;28;20049;-61
2024/04/01 11:54:26;;;;;;;0.32;0.32;;;;;;;10.64;63.26;98138.34;10421685;28;20132;-61
2024/04/01 11:59:29;;;;;;;0.30;0.30;;;;;;;10.64;62.82;98150.59;10420197;28;20469;-61
2024/04/01 12:04:31;;;;;;;1.25;0.63;;;;;;;10.78;61.97;98156.25;10408576;28;20501;-61
2024/04/01 12:09:33;;;;;;;0.30;0.30;;;;;;;10.68;61.62;98176.34;10409293;28;20040;-62
2024/04/01 12:14:38;;;;;;;0.57;0.50;;;;;;;10.72;61.43;98182.94;10421659;28;20214;-61
2024/04/01 12:19:40;;;;;;;0.40;0.30;;;;;;;10.74;61.52;98185.41;10408263;28;20045;-61
2024/04/01 12:24:43;;;;;;;0.20;0.20;;;;;;;10.72;61.69;98203.03;10408202;28;20037;-61
2024/04/01 12:29:44;;;;;;;0.30;0.30;;;;;;;10.49;62.24;98205.84;10407675;28;20048;-61
2024/04/01 12:34:46;;;;;;;1.30;0.70;;;;;;;10.48;62.27;98235.56;10425563;28;20434;-61
2024/04/01 12:39:51;;;;;;;0.43;0.43;;;;;;;10.34;62.10;98240.31;10423439;28;20052;-61
2024/04/01 12:44:54;;;;;;;0.82;0.40;;;;;;;10.31;62.62;98256.25;10407236;28;20284;-61
2024/04/01 12:50:06;;;;;;;0.40;0.40;;;;;;;10.22;62.17;98276.16;10426220;28;20524;-58
2024/04/01 12:55:30;;;;;;;0.50;0.50;;;;;;;9.97;63.32;98278.34;10430561;28;20132;-61
2024/04/01 13:00:37;;;;;;;0.50;0.50;;;;;;;9.64;62.69;98289.75;10431419;28;20494;-59
2024/04/01 13:05:38;;;;;;;0.50;0.50;;;;;;;9.75;62.98;98299.34;10422048;28;20041;-59
2024/04/01 13:10:55;;;;;;;0.50;0.50;;;;;;;9.67;63.42;98299.16;10397203;28;20061;-61
2024/04/01 13:16:17;;;;;;;1.92;1.20;;;;;;;9.70;62.95;98304.09;10443915;28;20064;-61
2024/04/01 13:21:32;;;;;;;0.60;0.60;;;;;;;9.72;62.69;98310.88;10432141;28;20177;-61
2024/04/01 13:26:39;;;;;;;0.77;0.60;;;;;;;9.89;63.31;98314.72;10414738;28;20049;-61
2024/04/01 13:31:55;;;;;;;5.07;2.50;;;;;;;10.08;63.16;98323.50;10430690;28;20105;-61
2024/04/01 13:37:21;;;;;;;2.17;1.10;;;;;;;10.37;62.82;98334.97;10430483;28;20060;-61
2024/04/01 13:42:49;;;;;;;5.30;2.97;;;;;;;10.33;62.51;98344.03;10431564;28;20152;-61
2024/04/01 13:48:17;;;;;;;0.63;0.60;;;;;;;10.44;62.48;98350.94;10428125;28;20495;-61
2024/04/01 13:53:42;;;;;;;1.63;0.88;;;;;;;10.39;62.75;98345.28;10430893;28;20048;-61
2024/04/01 13:58:55;;;;;;;0.77;0.55;;;;;;;10.21;61.73;98352.88;10430363;28;20033;-61
2024/04/01 14:04:05;;;;;;;0.75;0.43;;;;;;;10.30;62.46;98359.94;10429675;28;20033;-61
2024/04/01 14:09:27;;;;;;;1.07;0.70;;;;;;;10.61;61.77;98365.19;10431713;28;20822;-61
2024/04/01 14:14:51;;;;;;;1.10;0.70;;;;;;;11.02;61.12;98358.09;10412712;28;20623;-60
2024/04/01 14:20:07;;;;;;;0.60;0.60;;;;;;;11.28;59.58;98369.78;10428538;28;20045;-59
2024/04/01 14:25:08;;;;;;;0.60;0.50;;;;;;;11.41;60.90;98373.94;10428926;28;20131;-59
2024/04/01 14:30:10;;;;;;;0.77;0.70;;;;;;;11.51;60.57;98375.63;10414291;28;20075;-59
2024/04/01 14:35:11;;;;;;;1.15;0.63;;;;;;;11.93;60.24;98376.22;10414459;28;20056;-59
2024/04/01 14:40:12;;;;;;;0.40;0.40;;;;;;;12.59;59.25;98366.66;10432834;28;20164;-58
2024/04/01 14:45:14;;;;;;;0.70;0.70;;;;;;;12.91;58.90;98373.19;10437580;28;20136;-58
2024/04/01 14:50:15;;;;;;;0.75;0.63;;;;;;;13.25;58.46;98372.63;10437843;28;20055;-59
2024/04/01 14:55:17;;;;;;;0.40;0.40;;;;;;;13.17;57.84;98364.66;10420372;28;20545;-59
2024/04/01 15:00:19;;;;;;;1.33;0.90;;;;;;;13.38;57.96;98373.94;10437304;28;20045;-59
2024/04/01 15:05:20;;;;;;;0.43;0.43;;;;;;;13.56;57.04;98374.00;10436948;28;20037;-59
2024/04/01 15:10:21;;;;;;;0.40;0.40;;;;;;;13.75;56.88;98366.81;10437295;28;20582;-59
2024/04/01 15:15:24;;;;;;;0.43;0.38;;;;;;;13.68;56.80;98372.81;10436226;28;20049;-60
2024/04/01 15:20:27;;;;;;;0.88;0.80;;;;;;;13.58;56.29;98364.16;10437059;28;20421;-58
2024/04/01 15:25:29;;;;;;;0.68;0.68;;;;;;;13.52;56.73;98368.22;10403298;28;20063;-59
2024/04/01 15:30:32;;;;;;;0.60;0.60;;;;;;;13.44;56.38;98377.78;10437164;28;20051;-59
2024/04/01 15:35:33;;;;;;;2.25;0.55;;;;;;;13.06;56.50;98388.47;10419447;28;20136;-59
2024/04/01 15:40:36;;;;;;;0.73;0.60;;;;;;;12.78;56.16;98377.91;10436340;28;20151;-59
2024/04/01 15:45:42;;;;;;;0.40;0.40;;;;;;;12.71;56.46;98378.63;10435222;28;20049;-59
2024/04/01 15:50:44;;;;;;;1.08;0.65;;;;;;;13.14;56.16;98375.44;10435176;28;20044;-60
2024/04/01 15:55:46;;;;;;;0.47;0.47;;;;;;;12.68;55.87;98373.69;10401591;28;20679;-59
2024/04/01 16:00:48;;;;;;;1.17;0.95;;;;;;;12.44;56.71;98382.00;10418143;28;20041;-60
2024/04/01 16:05:53;;;;;;;0.82;0.65;;;;;;;12.50;56.54;98373.56;10434522;28;20212;-59
2024/04/01 16:10:54;;;;;;;0.73;0.60;;;;;;;12.44;56.55;98366.28;10418488;28;20070;-60
2024/04/01 16:15:56;;;;;;;0.50;0.50;;;;;;;12.38;56.32;98368.63;10433649;28;20045;-59
2024/04/01 16:20:59;;;;;;;1.35;0.60;;;;;;;12.52;56.19;98365.56;10434924;28;20045;-60
2024/04/01 16:26:01;;;;;;;9.45;1.25;;;;;;;12.70;56.02;98369.13;10466559;28;20037;-59
2024/04/01 16:31:05;;;;;;;0.55;0.55;;;;;;;12.94;55.55;98375.50;10417862;28;20068;-59
2024/04/01 16:36:06;;;;;;;1.10;0.50;;;;;;;12.72;55.10;98375.06;10433178;28;20067;-59
2024/04/01 16:41:07;;;;;;;1.45;0.73;;;;;;;12.54;55.29;98395.94;10434304;28;20045;-59
2024/04/01 16:46:08;;;;;;;0.70;0.60;;;;;;;12.31;55.39;98386.72;10416400;28;20146;-59
2024/04/01 16:51:09;;;;;;;0.57;0.50;;;;;;;12.13;55.60;98390.97;10415683;28;20091;-59
2024/04/01 16:56:11;;;;;;;0.65;0.65;;;;;;;12.10;55.75;98399.13;10432517;28;20128;-59
2024/04/01 17:01:13;;;;;;;0.50;0.50;;;;;;;12.11;55.99;98401.59;10433225;28;20041;-59
2024/04/01 17:06:20;;;;;;;0.65;0.65;;;;;;;12.11;56.22;98398.13;10430959;28;20056;-59
2024/04/01 17:11:27;;;;;;;0.60;0.60;;;;;;;12.12;55.82;98412.91;10415846;28;20041;-59
2024/04/01 17:16:29;;;;;;;2.58;0.65;;;;;;;12.07;56.16;98422.97;10431562;28;20122;-60
2024/04/01 17:21:32;;;;;;;0.95;0.60;;;;;;;12.01;56.05;98424.34;10432704;28;20037;-59
2024/04/01 17:26:33;;;;;;;0.50;0.50;;;;;;;11.88;56.22;98425.59;10430539;28;20710;-60
2024/04/01 17:31:35;;;;;;;0.43;0.43;;;;;;;11.87;56.12;98435.22;10432374;28;20349;-60
2024/04/01 17:36:36;;;;;;;1.65;0.95;;;;;;;11.80;56.42;98425.44;10414870;28;20060;-59
2024/04/01 17:41:37;;;;;;;1.38;0.98;;;;;;;11.59;56.68;98429.94;10415499;28;20087;-60
2024/04/01 17:46:38;;;;;;;2.08;0.57;;;;;;;11.54;56.73;98435.56;10414069;28;20115;-59
2024/04/01 17:51:39;;;;;;;0.40;0.40;;;;;;;11.55;56.80;98439.84;10430215;28;20415;-60
2024/04/01 17:56:40;;;;;;;1.08;0.80;;;;;;;11.47;56.83;98441.47;10430770;28;20059;-61
2024/04/01 18:01:42;;;;;;;0.40;0.40;;;;;;;11.36;56.87;98441.59;10404414;28;20117;-61
2024/04/01 18:06:43;;;;;;;0.80;0.55;;;;;;;11.26;56.98;98454.63;10401337;28;20049;-61
2024/04/01 18:11:45;;;;;;;0.82;0.60;;;;;;;11.05;57.29;98457.28;10403364;28;20436;-61
2024/04/01 18:16:46;;;;;;;0.50;0.50;;;;;;;10.75;57.58;98459.84;10426329;28;20049;-62
2024/04/01 18:21:48;;;;;;;0.57;0.55;;;;;;;10.68;57.66;98463.94;10397841;28;20098;-61
2024/04/01 18:26:49;;;;;;;0.30;0.30;;;;;;;10.59;57.69;98479.53;10465351;28;20053;-61
2024/04/01 18:31:51;;;;;;;3.35;1.23;;;;;;;10.40;57.93;98485.44;10429709;28;20049;-62
2024/04/01 18:37:01;;;;;;;0.55;0.55;;;;;;;10.41;57.93;98492.34;10430503;28;20088;-61
2024/04/01 18:42:03;;;;;;;1.90;0.50;;;;;;;10.33;58.15;98506.03;10428277;28;20047;-61
2024/04/01 18:47:05;;;;;;;0.75;0.40;;;;;;;10.36;58.21;98513.59;10429295;28;20049;-61
2024/04/01 18:52:11;;;;;;;0.40;0.40;;;;;;;10.37;58.19;98525.75;10428221;28;20041;-61
2024/04/01 18:57:13;;;;;;;0.50;0.50;;;;;;;10.37;58.33;98527.50;10413501;28;20102;-61
2024/04/01 19:02:14;;;;;;;0.30;0.30;;;;;;;10.38;58.38;98530.00;10425230;28;20045;-61
2024/04/01 19:07:15;;;;;;;0.52;0.40;;;;;;;10.31;58.45;98530.63;10432136;28;20056;-61
2024/04/01 19:12:16;;;;;;;1.25;0.50;;;;;;;10.21;58.65;98533.16;10412605;28;20057;-61
2024/04/01 19:17:17;;;;;;;0.52;0.32;;;;;;;10.14;58.77;98537.19;10427865;28;20049;-62
2024/04/01 19:22:18;;;;;;;0.32;0.32;;;;;;;10.06;59.04;98539.59;10431046;28;20710;-62
2024/04/01 19:27:19;;;;;;;0.47;0.40;;;;;;;9.95;59.21;98546.63;10410372;28;20049;-62
2024/04/01 19:32:21;;;;;;;0.50;0.50;;;;;;;9.90;59.31;98559.19;10413825;28;21041;-62
2024/04/01 19:37:22;;;;;;;0.40;0.40;;;;;;;9.83;59.50;98553.63;10428866;28;20098;-61
2024/04/01 19:42:23;;;;;;;0.82;0.60;;;;;;;9.75;59.52;98549.97;10428925;28;20106;-62
2024/04/01 19:47:25;;;;;;;0.68;0.50;;;;;;;9.75;59.87;98555.19;10409203;28;20051;-62
2024/04/01 19:52:26;;;;;;;0.90;0.60;;;;;;;9.73;60.01;98557.09;10410700;28;20045;-62
2024/04/01 19:57:32;;;;;;;0.85;0.47;;;;;;;9.67;59.94;98568.03;10410391;28;20041;-61
2024/04/01 20:02:33;;;;;;;0.40;0.40;;;;;;;9.55;60.14;98574.97;10427501;28;20045;-61
2024/04/01 20:07:35;;;;;;;0.50;0.50;;;;;;;9.50;60.48;98577.91;10410800;28;20061;-61
2024/04/01 20:12:40;;;;;;;1.08;0.38;;;;;;;9.38;60.39;98573.63;10407402;28;20143;-61
2024/04/01 20:17:41;;;;;;;0.43;0.43;;;;;;;9.26;60.68;98579.78;10426957;28;20045;-61
2024/04/01 20:22:42;;;;;;;0.60;0.60;;;;;;;9.12;60.91;98590.44;10428232;28;20061;-61
2024/04/01 20:27:44;;;;;;;1.33;0.63;;;;;;;9.08;61.16;98581.19;10430833;28;20055;-62
2024/04/01 20:32:45;;;;;;;1.13;0.85;;;;;;;9.00;61.45;98599.19;10434212;28;20106;-61
2024/04/01 20:37:46;;;;;;;1.95;1.17;;;;;;;9.01;61.62;98605.22;10433431;28;20098;-61
2024/04/01 20:42:47;;;;;;;2.25;0.90;;;;;;;9.08;61.70;98598.59;10411794;28;20057;-61
2024/04/01 20:47:49;;;;;;;1.95;0.90;;;;;;;9.08;61.64;98603.81;10428478;28;20052;-61
2024/04/01 20:53:06;;;;;;;0.95;0.90;;;;;;;9.00;61.96;98606.16;10414394;28;20428;-61
2024/04/01 20:58:17;;;;;;;1.90;1.15;;;;;;;8.93;62.14;98613.63;10428733;28;20041;-61
2024/04/01 21:03:35;;;;;;;2.35;0.70;;;;;;;8.83;62.35;98617.84;10432121;28;20520;-61
2024/04/01 21:08:37;;;;;;;1.48;1.00;;;;;;;8.85;62.19;98606.34;10431672;28;20156;-61
2024/04/01 21:13:39;;;;;;;1.45;0.85;;;;;;;8.78;62.14;98617.34;10423023;28;20048;-61
2024/04/01 21:18:40;;;;;;;0.75;0.70;;;;;;;8.68;62.28;98618.97;10431899;28;20040;-61
2024/04/01 21:23:41;;;;;;;1.38;0.98;;;;;;;8.65;62.32;98613.97;10431747;28;20045;-61
2024/04/01 21:28:42;;;;;;;1.95;0.90;;;;;;;8.56;62.49;98618.09;10430770;28;20044;-61
2024/04/01 21:33:45;;;;;;;3.63;1.65;;;;;;;8.50;62.53;98620.28;10432053;28;20555;-61
2024/04/01 21:38:46;;;;;;;0.52;0.52;;;;;;;8.42;62.68;98614.81;10431222;28;20053;-61
2024/04/01 21:43:48;;;;;;;1.73;0.95;;;;;;;8.40;62.96;98625.34;10448097;28;20053;-60
2024/04/01 21:48:49;;;;;;;3.13;0.95;;;;;;;8.37;62.93;98611.69;10431425;28;20047;-61
2024/04/01 21:53:50;;;;;;;0.52;0.50;;;;;;;8.32;63.20;98621.63;10423692;28;20045;-61
2024/04/01 21:58:52;;;;;;;0.63;0.60;;;;;;;8.26;63.50;98632.47;10438550;28;20515;-61
2024/04/01 22:03:53;;;;;;;0.93;0.80;;;;;;;8.28;63.40;98641.00;10415594;28;20045;-61
2024/04/01 22:08:54;;;;;;;0.40;0.40;;;;;;;8.27;63.38;98639.31;10439293;28;20049;-61
2024/04/01 22:13:56;;;;;;;1.00;0.47;;;;;;;8.32;63.28;98645.06;10418116;28;20045;-61
2024/04/01 22:18:58;;;;;;;1.52;1.08;;;;;;;8.29;63.49;98647.88;10439130;28;20135;-61
2024/04/01 22:24:01;;;;;;;0.65;0.65;;;;;;;8.18;63.59;98655.63;10438392;28;20037;-61
2024/04/01 22:29:03;;;;;;;1.00;0.57;;;;;;;8.05;63.80;98658.22;10437729;28;20048;-61
2024/04/01 22:34:04;;;;;;;2.42;1.25;;;;;;;7.91;64.44;98659.19;10438081;28;20386;-61
2024/04/01 22:39:08;;;;;;;0.82;0.77;;;;;;;7.88;64.41;98664.56;10420542;28;20519;-61
2024/04/01 22:44:09;;;;;;;0.90;0.68;;;;;;;7.82;64.58;98665.00;10438386;28;20156;-61
2024/04/01 22:49:09;;;;;;;1.55;0.70;;;;;;;7.79;64.68;98669.59;10421390;28;20041;-61
2024/04/01 22:54:10;;;;;;;0.55;0.55;;;;;;;7.81;64.53;98680.72;10421716;28;20858;-61
2024/04/01 22:59:11;;;;;;;0.70;0.70;;;;;;;7.80;64.57;98684.25;10437796;28;20049;-61
2024/04/01 23:04:14;;;;;;;0.60;0.60;;;;;;;7.87;64.43;98688.97;10418896;28;20504;-61
2024/04/01 23:09:17;;;;;;;0.68;0.65;;;;;;;7.90;64.20;98693.94;10420626;28;20489;-61
2024/04/01 23:14:18;;;;;;;0.65;0.60;;;;;;;7.95;64.26;98698.84;10437109;28;20044;-61
2024/04/01 23:19:18;;;;;;;0.50;0.50;;;;;;;8.02;64.01;98690.50;10437025;28;20040;-62
2024/04/01 23:24:23;;;;;;;2.90;0.93;;;;;;;8.06;63.74;98690.28;10420170;28;20059;-61
2024/04/01 23:29:24;;;;;;;0.73;0.68;;;;;;;7.94;63.90;98700.59;10417457;28;20049;-61
2024/04/01 23:34:26;;;;;;;1.95;0.60;;;;;;;7.89;63.99;98697.50;10435906;28;20087;-61
2024/04/01 23:39:30;;;;;;;0.73;0.60;;;;;;;7.88;64.05;98701.03;10420075;28;20126;-61